sensor_id;sensor_type;location;lat;lon;timestamp;temperature;humidity
5870;DHT22;2961;47.702;9.410;2023-04-01T00:01:28;8.30;99.90
5870;DHT22;2961;47.702;9.410;2023-04-01T00:03:55;8.30;99.90
5870;DHT22;2961;47.702;9.410;2023-04-01T00:06:23;8.20;99.90
5870;DHT22;2961;47.702;9.410;2023-04-01T00:08:51;8.10;99.90
5870;DHT22;2961;47.702;9.410;2023-04-01T00:11:18;8.00;99.90
5870;DHT22;2961;47.702;9.410;2023-04-01T00:13:45;8.00;99.90
5870;DHT22;2961;47.702;9.410;2023-04-01T00:16:12;7.90;99.90
5870;DHT22;2961;47.702;9.410;2023-04-01T00:18:39;7.90;99.90
5870;DHT22;2961;47.702;9.410;2023-04-01T00:21:06;7.80;99.90
5870;DHT22;2961;47.702;9.410;2023-04-01T00:23:34;7.70;99.90
5870;DHT22;2961;47.702;9.410;2023-04-01T00:26:03;7.70;99.90
5870;DHT22;2961;47.702;9.410;2023-04-01T00:28:30;7.60;99.90
5870;DHT22;2961;47.702;9.410;2023-04-01T00:30:57;7.60;99.90
5870;DHT22;2961;47.702;9.410;2023-04-01T00:33:24;7.60;99.90
5870;DHT22;2961;47.702;9.410;2023-04-01T00:35:52;7.50;99.90
5870;DHT22;2961;47.702;9.410;2023-04-01T00:38:19;7.50;99.90
5870;DHT22;2961;47.702;9.410;2023-04-01T00:40:47;7.50;99.90
5870;DHT22;2961;47.702;9.410;2023-04-01T00:43:17;7.40;99.90
5870;DHT22;2961;47.702;9.410;2023-04-01T00:45:45;7.30;99.90
5870;DHT22;2961;47.702;9.410;2023-04-01T00:48:16;7.30;99.90
5870;DHT22;2961;47.702;9.410;2023-04-01T00:50:47;7.20;99.90
5870;DHT22;2961;47.702;9.410;2023-04-01T00:53:16;7.00;99.90
5870;DHT22;2961;47.702;9.410;2023-04-01T00:55:47;7.00;99.90
5870;DHT22;2961;47.702;9.410;2023-04-01T00:58:18;7.00;99.90
5870;DHT22;2961;47.702;9.410;2023-04-01T01:00:47;6.90;99.90
5870;DHT22;2961;47.702;9.410;2023-04-01T01:03:15;6.80;99.90
5870;DHT22;2961;47.702;9.410;2023-04-01T01:06:00;6.80;99.90
5870;DHT22;2961;47.702;9.410;2023-04-01T01:08:40;6.70;99.90
5870;DHT22;2961;47.702;9.410;2023-04-01T01:11:11;6.70;99.90
5870;DHT22;2961;47.702;9.410;2023-04-01T01:13:45;6.60;99.90
5870;DHT22;2961;47.702;9.410;2023-04-01T01:16:20;6.60;99.90
5870;DHT22;2961;47.702;9.410;2023-04-01T01:18:53;6.60;99.90
5870;DHT22;2961;47.702;9.410;2023-04-01T01:21:38;6.70;99.90
5870;DHT22;2961;47.702;9.410;2023-04-01T01:24:15;6.60;99.90
5870;DHT22;2961;47.702;9.410;2023-04-01T01:27:02;6.50;99.90
5870;DHT22;2961;47.702;9.410;2023-04-01T01:32:44;6.50;99.90
5870;DHT22;2961;47.702;9.410;2023-04-01T01:35:21;6.40;99.90
5870;DHT22;2961;47.702;9.410;2023-04-01T01:37:52;6.40;99.90
5870;DHT22;2961;47.702;9.410;2023-04-01T01:40:20;6.40;99.90
5870;DHT22;2961;47.702;9.410;2023-04-01T01:42:50;6.30;99.90
5870;DHT22;2961;47.702;9.410;2023-04-01T01:45:20;6.20;99.90
5870;DHT22;2961;47.702;9.410;2023-04-01T01:47:49;6.30;99.90
5870;DHT22;2961;47.702;9.410;2023-04-01T01:50:18;6.30;99.90
5870;DHT22;2961;47.702;9.410;2023-04-01T01:52:46;6.20;99.90
5870;DHT22;2961;47.702;9.410;2023-04-01T01:55:26;6.20;99.90
5870;DHT22;2961;47.702;9.410;2023-04-01T01:57:55;6.20;99.90
5870;DHT22;2961;47.702;9.410;2023-04-01T02:00:22;6.10;99.90
5870;DHT22;2961;47.702;9.410;2023-04-01T02:02:50;6.20;99.90
5870;DHT22;2961;47.702;9.410;2023-04-01T02:05:20;6.30;99.90
5870;DHT22;2961;47.702;9.410;2023-04-01T02:07:51;6.20;99.90
5870;DHT22;2961;47.702;9.410;2023-04-01T02:10:21;6.20;99.90
5870;DHT22;2961;47.702;9.410;2023-04-01T02:12:49;6.20;99.90
5870;DHT22;2961;47.702;9.410;2023-04-01T02:15:18;6.30;99.90
5870;DHT22;2961;47.702;9.410;2023-04-01T02:17:47;6.20;99.90
5870;DHT22;2961;47.702;9.410;2023-04-01T02:20:20;6.30;99.90
5870;DHT22;2961;47.702;9.410;2023-04-01T02:22:49;6.30;99.90
5870;DHT22;2961;47.702;9.410;2023-04-01T02:25:20;6.30;99.90
5870;DHT22;2961;47.702;9.410;2023-04-01T02:27:48;6.30;99.90
5870;DHT22;2961;47.702;9.410;2023-04-01T02:30:16;6.30;99.90
5870;DHT22;2961;47.702;9.410;2023-04-01T02:32:43;6.20;99.90
5870;DHT22;2961;47.702;9.410;2023-04-01T02:35:13;6.20;99.90
5870;DHT22;2961;47.702;9.410;2023-04-01T02:37:43;6.40;99.90
5870;DHT22;2961;47.702;9.410;2023-04-01T02:40:12;6.60;99.90
5870;DHT22;2961;47.702;9.410;2023-04-01T02:42:39;6.50;99.90
5870;DHT22;2961;47.702;9.410;2023-04-01T02:45:08;6.40;99.90
5870;DHT22;2961;47.702;9.410;2023-04-01T02:47:35;6.60;99.90
5870;DHT22;2961;47.702;9.410;2023-04-01T02:50:02;6.50;99.90
5870;DHT22;2961;47.702;9.410;2023-04-01T02:52:29;6.60;99.90
5870;DHT22;2961;47.702;9.410;2023-04-01T02:54:58;6.70;99.90
5870;DHT22;2961;47.702;9.410;2023-04-01T02:57:25;6.60;99.90
5870;DHT22;2961;47.702;9.410;2023-04-01T02:59:52;6.70;99.90
5870;DHT22;2961;47.702;9.410;2023-04-01T03:02:18;6.60;99.90
5870;DHT22;2961;47.702;9.410;2023-04-01T03:04:45;6.70;99.90
5870;DHT22;2961;47.702;9.410;2023-04-01T03:07:12;6.80;99.90
5870;DHT22;2961;47.702;9.410;2023-04-01T03:09:39;6.70;99.90
5870;DHT22;2961;47.702;9.410;2023-04-01T03:12:08;6.70;99.90
5870;DHT22;2961;47.702;9.410;2023-04-01T03:14:35;6.70;99.90
5870;DHT22;2961;47.702;9.410;2023-04-01T03:17:02;6.70;99.90
5870;DHT22;2961;47.702;9.410;2023-04-01T03:19:29;6.70;99.90
5870;DHT22;2961;47.702;9.410;2023-04-01T03:21:55;6.70;99.90
5870;DHT22;2961;47.702;9.410;2023-04-01T03:24:22;6.70;99.90
5870;DHT22;2961;47.702;9.410;2023-04-01T03:26:49;6.70;99.90
5870;DHT22;2961;47.702;9.410;2023-04-01T03:29:17;6.80;99.90
5870;DHT22;2961;47.702;9.410;2023-04-01T03:31:44;6.80;99.90
5870;DHT22;2961;47.702;9.410;2023-04-01T03:34:10;6.70;99.90
5870;DHT22;2961;47.702;9.410;2023-04-01T03:36:37;6.80;99.90
5870;DHT22;2961;47.702;9.410;2023-04-01T03:39:05;6.90;99.90
5870;DHT22;2961;47.702;9.410;2023-04-01T03:41:31;6.80;99.90
5870;DHT22;2961;47.702;9.410;2023-04-01T03:43:58;6.80;99.90
5870;DHT22;2961;47.702;9.410;2023-04-01T03:46:26;6.80;99.90
5870;DHT22;2961;47.702;9.410;2023-04-01T03:48:53;6.90;99.90
5870;DHT22;2961;47.702;9.410;2023-04-01T03:51:20;6.90;99.90
5870;DHT22;2961;47.702;9.410;2023-04-01T03:53:47;6.80;99.90
5870;DHT22;2961;47.702;9.410;2023-04-01T03:56:13;6.80;99.90
5870;DHT22;2961;47.702;9.410;2023-04-01T03:58:40;6.80;99.90
5870;DHT22;2961;47.702;9.410;2023-04-01T04:01:18;6.80;99.90
5870;DHT22;2961;47.702;9.410;2023-04-01T04:03:47;6.80;99.90
5870;DHT22;2961;47.702;9.410;2023-04-01T04:06:16;6.80;99.90
5870;DHT22;2961;47.702;9.410;2023-04-01T04:08:53;6.90;99.90
5870;DHT22;2961;47.702;9.410;2023-04-01T04:11:21;6.80;99.90
5870;DHT22;2961;47.702;9.410;2023-04-01T04:13:48;6.90;99.90
5870;DHT22;2961;47.702;9.410;2023-04-01T04:16:15;6.90;99.90
5870;DHT22;2961;47.702;9.410;2023-04-01T04:18:42;6.80;99.90
5870;DHT22;2961;47.702;9.410;2023-04-01T04:21:13;6.80;99.90
5870;DHT22;2961;47.702;9.410;2023-04-01T04:23:40;6.90;99.90
5870;DHT22;2961;47.702;9.410;2023-04-01T04:26:09;6.90;99.90
5870;DHT22;2961;47.702;9.410;2023-04-01T04:28:36;6.90;99.90
5870;DHT22;2961;47.702;9.410;2023-04-01T04:31:03;7.00;99.90
5870;DHT22;2961;47.702;9.410;2023-04-01T04:33:32;7.00;99.90
5870;DHT22;2961;47.702;9.410;2023-04-01T04:36:01;7.00;99.90
5870;DHT22;2961;47.702;9.410;2023-04-01T04:38:30;7.00;99.90
5870;DHT22;2961;47.702;9.410;2023-04-01T04:40:57;7.00;99.90
5870;DHT22;2961;47.702;9.410;2023-04-01T04:43:24;7.00;99.90
5870;DHT22;2961;47.702;9.410;2023-04-01T04:45:51;7.00;99.90
5870;DHT22;2961;47.702;9.410;2023-04-01T04:48:18;7.10;99.90
5870;DHT22;2961;47.702;9.410;2023-04-01T04:50:46;7.10;99.90
5870;DHT22;2961;47.702;9.410;2023-04-01T04:53:14;7.10;99.90
5870;DHT22;2961;47.702;9.410;2023-04-01T04:55:45;7.10;99.90
5870;DHT22;2961;47.702;9.410;2023-04-01T04:58:12;7.00;99.90
5870;DHT22;2961;47.702;9.410;2023-04-01T05:00:38;7.10;99.90
5870;DHT22;2961;47.702;9.410;2023-04-01T05:03:05;7.10;99.90
5870;DHT22;2961;47.702;9.410;2023-04-01T05:05:32;7.10;99.90
5870;DHT22;2961;47.702;9.410;2023-04-01T05:07:59;7.10;99.90
5870;DHT22;2961;47.702;9.410;2023-04-01T05:10:26;7.10;99.90
5870;DHT22;2961;47.702;9.410;2023-04-01T05:12:54;7.00;99.90
5870;DHT22;2961;47.702;9.410;2023-04-01T05:15:21;6.90;99.90
5870;DHT22;2961;47.702;9.410;2023-04-01T05:17:48;6.80;99.90
5870;DHT22;2961;47.702;9.410;2023-04-01T05:20:15;6.80;99.90
5870;DHT22;2961;47.702;9.410;2023-04-01T05:22:42;6.80;99.90
5870;DHT22;2961;47.702;9.410;2023-04-01T05:25:09;6.80;99.90
5870;DHT22;2961;47.702;9.410;2023-04-01T05:27:36;6.80;99.90
5870;DHT22;2961;47.702;9.410;2023-04-01T05:30:06;6.70;99.90
5870;DHT22;2961;47.702;9.410;2023-04-01T05:32:33;6.70;99.90
5870;DHT22;2961;47.702;9.410;2023-04-01T05:34:59;6.70;99.90
5870;DHT22;2961;47.702;9.410;2023-04-01T05:37:26;6.70;99.90
5870;DHT22;2961;47.702;9.410;2023-04-01T05:39:53;6.80;99.90
5870;DHT22;2961;47.702;9.410;2023-04-01T05:42:20;6.80;99.90
5870;DHT22;2961;47.702;9.410;2023-04-01T05:44:46;7.00;99.90
5870;DHT22;2961;47.702;9.410;2023-04-01T05:47:14;7.00;99.90
5870;DHT22;2961;47.702;9.410;2023-04-01T05:49:41;7.10;99.90
5870;DHT22;2961;47.702;9.410;2023-04-01T05:52:08;7.10;99.90
5870;DHT22;2961;47.702;9.410;2023-04-01T05:54:35;7.20;99.90
5870;DHT22;2961;47.702;9.410;2023-04-01T05:57:02;7.30;99.90
5870;DHT22;2961;47.702;9.410;2023-04-01T05:59:29;7.30;99.90
5870;DHT22;2961;47.702;9.410;2023-04-01T06:01:56;7.30;99.90
5870;DHT22;2961;47.702;9.410;2023-04-01T06:04:24;7.30;99.90
5870;DHT22;2961;47.702;9.410;2023-04-01T06:06:51;7.40;99.90
5870;DHT22;2961;47.702;9.410;2023-04-01T06:09:19;7.40;99.90
5870;DHT22;2961;47.702;9.410;2023-04-01T06:12:02;7.40;99.90
5870;DHT22;2961;47.702;9.410;2023-04-01T06:14:37;7.40;99.90
5870;DHT22;2961;47.702;9.410;2023-04-01T06:17:17;7.40;99.90
5870;DHT22;2961;47.702;9.410;2023-04-01T06:19:52;7.50;99.90
5870;DHT22;2961;47.702;9.410;2023-04-01T06:31:35;7.80;99.90
5870;DHT22;2961;47.702;9.410;2023-04-01T06:34:26;7.90;99.90
5870;DHT22;2961;47.702;9.410;2023-04-01T06:37:16;8.00;99.90
5870;DHT22;2961;47.702;9.410;2023-04-01T06:40:03;8.10;99.90
5870;DHT22;2961;47.702;9.410;2023-04-01T06:42:43;8.10;99.90
5870;DHT22;2961;47.702;9.410;2023-04-01T06:45:27;8.30;99.90
5870;DHT22;2961;47.702;9.410;2023-04-01T06:48:10;8.60;99.90
5870;DHT22;2961;47.702;9.410;2023-04-01T06:50:45;8.70;99.90
5870;DHT22;2961;47.702;9.410;2023-04-01T06:53:19;8.70;99.90
5870;DHT22;2961;47.702;9.410;2023-04-01T06:55:51;9.00;99.90
5870;DHT22;2961;47.702;9.410;2023-04-01T06:58:20;9.10;99.90
5870;DHT22;2961;47.702;9.410;2023-04-01T07:00:49;9.20;99.90
5870;DHT22;2961;47.702;9.410;2023-04-01T07:03:21;9.20;99.90
5870;DHT22;2961;47.702;9.410;2023-04-01T07:05:49;9.60;99.90
5870;DHT22;2961;47.702;9.410;2023-04-01T07:08:21;9.80;99.90
5870;DHT22;2961;47.702;9.410;2023-04-01T07:10:53;10.00;99.90
5870;DHT22;2961;47.702;9.410;2023-04-01T07:13:26;10.20;99.90
5870;DHT22;2961;47.702;9.410;2023-04-01T07:15:59;10.20;99.90
5870;DHT22;2961;47.702;9.410;2023-04-01T07:18:34;10.30;99.90
5870;DHT22;2961;47.702;9.410;2023-04-01T07:21:05;10.40;99.90
5870;DHT22;2961;47.702;9.410;2023-04-01T07:23:40;10.70;99.90
5870;DHT22;2961;47.702;9.410;2023-04-01T07:26:15;11.10;99.90
5870;DHT22;2961;47.702;9.410;2023-04-01T07:28:43;11.50;99.90
5870;DHT22;2961;47.702;9.410;2023-04-01T07:31:18;12.00;99.90
5870;DHT22;2961;47.702;9.410;2023-04-01T07:33:54;12.20;99.90
5870;DHT22;2961;47.702;9.410;2023-04-01T07:36:26;12.10;99.90
5870;DHT22;2961;47.702;9.410;2023-04-01T07:39:04;12.00;99.90
5870;DHT22;2961;47.702;9.410;2023-04-01T07:41:39;11.50;99.90
5870;DHT22;2961;47.702;9.410;2023-04-01T07:44:15;11.50;99.90
5870;DHT22;2961;47.702;9.410;2023-04-01T07:46:59;11.30;99.90
5870;DHT22;2961;47.702;9.410;2023-04-01T07:49:34;11.30;99.90
5870;DHT22;2961;47.702;9.410;2023-04-01T07:52:07;11.10;99.90
5870;DHT22;2961;47.702;9.410;2023-04-01T07:54:43;11.00;99.90
5870;DHT22;2961;47.702;9.410;2023-04-01T07:57:30;10.70;99.90
5870;DHT22;2961;47.702;9.410;2023-04-01T08:00:07;10.40;99.90
5870;DHT22;2961;47.702;9.410;2023-04-01T08:02:48;10.20;99.90
5870;DHT22;2961;47.702;9.410;2023-04-01T08:05:23;10.20;99.90
5870;DHT22;2961;47.702;9.410;2023-04-01T08:07:59;10.30;99.90
5870;DHT22;2961;47.702;9.410;2023-04-01T08:10:38;10.50;99.90
5870;DHT22;2961;47.702;9.410;2023-04-01T08:13:13;10.60;99.90
5870;DHT22;2961;47.702;9.410;2023-04-01T08:15:47;10.80;99.90
5870;DHT22;2961;47.702;9.410;2023-04-01T08:18:23;11.00;99.90
5870;DHT22;2961;47.702;9.410;2023-04-01T08:20:58;11.20;99.90
5870;DHT22;2961;47.702;9.410;2023-04-01T08:23:27;11.50;99.90
5870;DHT22;2961;47.702;9.410;2023-04-01T08:26:00;11.60;99.90
5870;DHT22;2961;47.702;9.410;2023-04-01T08:28:30;11.70;99.90
5870;DHT22;2961;47.702;9.410;2023-04-01T08:31:04;11.70;99.90
5870;DHT22;2961;47.702;9.410;2023-04-01T08:33:32;11.20;99.90
5870;DHT22;2961;47.702;9.410;2023-04-01T08:36:05;10.80;99.90
5870;DHT22;2961;47.702;9.410;2023-04-01T08:38:37;10.70;99.90
5870;DHT22;2961;47.702;9.410;2023-04-01T08:41:29;10.50;99.90
5870;DHT22;2961;47.702;9.410;2023-04-01T08:44:19;10.40;99.90
5870;DHT22;2961;47.702;9.410;2023-04-01T08:49:56;10.50;99.90
5870;DHT22;2961;47.702;9.410;2023-04-01T08:52:34;10.40;99.90
5870;DHT22;2961;47.702;9.410;2023-04-01T08:55:25;10.20;99.90
5870;DHT22;2961;47.702;9.410;2023-04-01T08:58:07;10.10;99.90
5870;DHT22;2961;47.702;9.410;2023-04-01T09:00:43;10.10;99.90
5870;DHT22;2961;47.702;9.410;2023-04-01T09:03:29;10.20;99.90
5870;DHT22;2961;47.702;9.410;2023-04-01T09:06:15;10.10;99.90
5870;DHT22;2961;47.702;9.410;2023-04-01T09:08:58;10.10;99.90
5870;DHT22;2961;47.702;9.410;2023-04-01T09:11:33;10.00;99.90
5870;DHT22;2961;47.702;9.410;2023-04-01T09:14:23;10.00;99.90
5870;DHT22;2961;47.702;9.410;2023-04-01T09:19:58;10.10;99.90
5870;DHT22;2961;47.702;9.410;2023-04-01T09:22:40;10.00;99.90
5870;DHT22;2961;47.702;9.410;2023-04-01T09:25:29;9.90;99.90
5870;DHT22;2961;47.702;9.410;2023-04-01T09:28:07;9.80;99.90
5870;DHT22;2961;47.702;9.410;2023-04-01T09:30:55;9.80;99.90
5870;DHT22;2961;47.702;9.410;2023-04-01T09:36:42;9.70;99.90
5870;DHT22;2961;47.702;9.410;2023-04-01T09:39:24;9.60;99.90
5870;DHT22;2961;47.702;9.410;2023-04-01T09:42:24;9.60;99.90
5870;DHT22;2961;47.702;9.410;2023-04-01T09:44:58;9.50;99.90
5870;DHT22;2961;47.702;9.410;2023-04-01T09:47:47;9.40;99.90
5870;DHT22;2961;47.702;9.410;2023-04-01T09:50:35;9.50;99.90
5870;DHT22;2961;47.702;9.410;2023-04-01T09:53:24;9.50;99.90
5870;DHT22;2961;47.702;9.410;2023-04-01T09:56:30;9.60;99.90
5870;DHT22;2961;47.702;9.410;2023-04-01T09:59:45;9.60;99.90
5870;DHT22;2961;47.702;9.410;2023-04-01T10:02:33;9.60;99.90
5870;DHT22;2961;47.702;9.410;2023-04-01T10:05:33;9.60;99.90
5870;DHT22;2961;47.702;9.410;2023-04-01T10:11:25;9.70;99.90
5870;DHT22;2961;47.702;9.410;2023-04-01T10:17:27;9.70;99.90
5870;DHT22;2961;47.702;9.410;2023-04-01T10:20:09;9.80;99.90
5870;DHT22;2961;47.702;9.410;2023-04-01T10:25:48;10.00;99.90
5870;DHT22;2961;47.702;9.410;2023-04-01T10:28:41;10.00;99.90
5870;DHT22;2961;47.702;9.410;2023-04-01T10:31:43;10.10;99.90
5870;DHT22;2961;47.702;9.410;2023-04-01T10:37:42;10.30;99.90
5870;DHT22;2961;47.702;9.410;2023-04-01T10:40:46;10.20;99.90
5870;DHT22;2961;47.702;9.410;2023-04-01T10:46:48;10.30;99.90
5870;DHT22;2961;47.702;9.410;2023-04-01T10:49:37;10.40;99.90
5870;DHT22;2961;47.702;9.410;2023-04-01T10:52:33;10.30;99.90
5870;DHT22;2961;47.702;9.410;2023-04-01T10:58:36;10.50;99.90
5870;DHT22;2961;47.702;9.410;2023-04-01T11:01:25;10.50;99.90
5870;DHT22;2961;47.702;9.410;2023-04-01T11:10:34;10.40;99.90
5870;DHT22;2961;47.702;9.410;2023-04-01T11:13:39;10.30;99.90
5870;DHT22;2961;47.702;9.410;2023-04-01T11:16:40;10.20;99.90
5870;DHT22;2961;47.702;9.410;2023-04-01T11:19:36;10.20;99.90
5870;DHT22;2961;47.702;9.410;2023-04-01T11:22:43;10.00;99.90
5870;DHT22;2961;47.702;9.410;2023-04-01T11:25:41;10.00;99.90
5870;DHT22;2961;47.702;9.410;2023-04-01T11:28:27;10.10;99.90
5870;DHT22;2961;47.702;9.410;2023-04-01T11:31:12;10.30;99.90
5870;DHT22;2961;47.702;9.410;2023-04-01T11:33:51;10.30;99.90
5870;DHT22;2961;47.702;9.410;2023-04-01T11:36:33;10.40;99.90
5870;DHT22;2961;47.702;9.410;2023-04-01T11:39:14;10.70;99.90
5870;DHT22;2961;47.702;9.410;2023-04-01T11:41:49;10.80;99.90
5870;DHT22;2961;47.702;9.410;2023-04-01T11:44:20;10.90;99.90
5870;DHT22;2961;47.702;9.410;2023-04-01T11:47:13;10.90;99.90
5870;DHT22;2961;47.702;9.410;2023-04-01T11:49:51;11.10;99.90
5870;DHT22;2961;47.702;9.410;2023-04-01T11:52:26;11.30;99.90
5870;DHT22;2961;47.702;9.410;2023-04-01T11:55:14;11.50;99.90
5870;DHT22;2961;47.702;9.410;2023-04-01T11:58:12;11.80;99.90
5870;DHT22;2961;47.702;9.410;2023-04-01T12:00:57;11.90;99.90
5870;DHT22;2961;47.702;9.410;2023-04-01T12:03:46;11.90;99.90
5870;DHT22;2961;47.702;9.410;2023-04-01T12:06:20;11.90;99.90
5870;DHT22;2961;47.702;9.410;2023-04-01T12:08:54;11.80;99.90
5870;DHT22;2961;47.702;9.410;2023-04-01T12:11:29;11.70;99.90
5870;DHT22;2961;47.702;9.410;2023-04-01T12:14:04;11.60;99.90
5870;DHT22;2961;47.702;9.410;2023-04-01T12:16:51;11.60;99.90
5870;DHT22;2961;47.702;9.410;2023-04-01T12:19:32;11.70;99.90
5870;DHT22;2961;47.702;9.410;2023-04-01T12:22:28;11.90;99.90
5870;DHT22;2961;47.702;9.410;2023-04-01T12:25:14;12.10;99.90
5870;DHT22;2961;47.702;9.410;2023-04-01T12:28:00;12.10;99.90
5870;DHT22;2961;47.702;9.410;2023-04-01T12:30:42;12.20;99.90
5870;DHT22;2961;47.702;9.410;2023-04-01T12:33:40;12.50;99.90
5870;DHT22;2961;47.702;9.410;2023-04-01T12:36:20;12.40;99.90
5870;DHT22;2961;47.702;9.410;2023-04-01T12:39:00;12.30;99.90
5870;DHT22;2961;47.702;9.410;2023-04-01T12:41:39;12.20;99.90
5870;DHT22;2961;47.702;9.410;2023-04-01T12:44:21;12.10;99.90
5870;DHT22;2961;47.702;9.410;2023-04-01T12:47:06;11.80;99.90
5870;DHT22;2961;47.702;9.410;2023-04-01T12:49:50;11.70;99.90
5870;DHT22;2961;47.702;9.410;2023-04-01T12:52:30;11.70;99.90
5870;DHT22;2961;47.702;9.410;2023-04-01T12:58:05;11.30;99.90
5870;DHT22;2961;47.702;9.410;2023-04-01T13:00:57;11.20;99.90
5870;DHT22;2961;47.702;9.410;2023-04-01T13:03:54;11.20;99.90
5870;DHT22;2961;47.702;9.410;2023-04-01T13:06:32;11.40;99.90
5870;DHT22;2961;47.702;9.410;2023-04-01T13:09:13;11.50;99.90
5870;DHT22;2961;47.702;9.410;2023-04-01T13:11:54;11.60;99.90
5870;DHT22;2961;47.702;9.410;2023-04-01T13:17:35;11.70;99.90
5870;DHT22;2961;47.702;9.410;2023-04-01T13:20:06;11.60;99.90
5870;DHT22;2961;47.702;9.410;2023-04-01T13:22:52;11.50;99.90
5870;DHT22;2961;47.702;9.410;2023-04-01T13:25:27;11.30;99.90
5870;DHT22;2961;47.702;9.410;2023-04-01T13:28:02;11.40;99.90
5870;DHT22;2961;47.702;9.410;2023-04-01T13:30:37;11.50;99.90
5870;DHT22;2961;47.702;9.410;2023-04-01T13:33:14;11.50;99.90
5870;DHT22;2961;47.702;9.410;2023-04-01T13:35:48;11.60;99.90
5870;DHT22;2961;47.702;9.410;2023-04-01T13:38:37;11.70;99.90
5870;DHT22;2961;47.702;9.410;2023-04-01T13:41:15;11.70;99.90
5870;DHT22;2961;47.702;9.410;2023-04-01T13:43:50;11.60;99.90
5870;DHT22;2961;47.702;9.410;2023-04-01T13:52:51;11.30;99.90
5870;DHT22;2961;47.702;9.410;2023-04-01T13:55:30;11.30;99.90
5870;DHT22;2961;47.702;9.410;2023-04-01T13:58:28;11.30;99.90
5870;DHT22;2961;47.702;9.410;2023-04-01T14:01:09;11.30;99.90
5870;DHT22;2961;47.702;9.410;2023-04-01T14:03:50;11.30;99.90
5870;DHT22;2961;47.702;9.410;2023-04-01T14:06:31;11.30;99.90
5870;DHT22;2961;47.702;9.410;2023-04-01T14:09:18;11.30;99.90
5870;DHT22;2961;47.702;9.410;2023-04-01T14:11:55;11.20;99.90
5870;DHT22;2961;47.702;9.410;2023-04-01T14:14:34;11.10;99.90
5870;DHT22;2961;47.702;9.410;2023-04-01T14:17:19;11.10;99.90
5870;DHT22;2961;47.702;9.410;2023-04-01T14:20:28;11.20;99.90
5870;DHT22;2961;47.702;9.410;2023-04-01T14:26:22;11.00;99.90
5870;DHT22;2961;47.702;9.410;2023-04-01T14:28:59;11.00;99.90
5870;DHT22;2961;47.702;9.410;2023-04-01T14:31:48;11.10;99.90
5870;DHT22;2961;47.702;9.410;2023-04-01T14:34:24;11.10;99.90
5870;DHT22;2961;47.702;9.410;2023-04-01T14:37:15;11.00;99.90
5870;DHT22;2961;47.702;9.410;2023-04-01T14:40:03;10.90;99.90
5870;DHT22;2961;47.702;9.410;2023-04-01T14:42:52;11.00;99.90
5870;DHT22;2961;47.702;9.410;2023-04-01T14:45:42;11.00;99.90
5870;DHT22;2961;47.702;9.410;2023-04-01T14:48:21;11.00;99.90
5870;DHT22;2961;47.702;9.410;2023-04-01T14:50:51;11.00;99.90
5870;DHT22;2961;47.702;9.410;2023-04-01T14:53:27;11.00;99.90
5870;DHT22;2961;47.702;9.410;2023-04-01T14:55:55;10.90;99.90
5870;DHT22;2961;47.702;9.410;2023-04-01T14:58:24;11.00;99.90
5870;DHT22;2961;47.702;9.410;2023-04-01T15:01:00;11.00;99.90
5870;DHT22;2961;47.702;9.410;2023-04-01T15:03:39;11.00;99.90
5870;DHT22;2961;47.702;9.410;2023-04-01T15:06:50;11.00;99.90
5870;DHT22;2961;47.702;9.410;2023-04-01T15:09:26;10.90;99.90
5870;DHT22;2961;47.702;9.410;2023-04-01T15:12:06;10.90;99.90
5870;DHT22;2961;47.702;9.410;2023-04-01T15:17:52;10.40;99.90
5870;DHT22;2961;47.702;9.410;2023-04-01T15:20:48;10.20;99.90
5870;DHT22;2961;47.702;9.410;2023-04-01T15:23:27;10.10;99.90
5870;DHT22;2961;47.702;9.410;2023-04-01T15:26:27;10.10;99.90
5870;DHT22;2961;47.702;9.410;2023-04-01T15:31:50;9.90;99.90
5870;DHT22;2961;47.702;9.410;2023-04-01T15:34:32;10.00;99.90
5870;DHT22;2961;47.702;9.410;2023-04-01T15:37:07;10.10;99.90
5870;DHT22;2961;47.702;9.410;2023-04-01T15:39:48;10.10;99.90
5870;DHT22;2961;47.702;9.410;2023-04-01T15:42:30;10.10;99.90
5870;DHT22;2961;47.702;9.410;2023-04-01T15:45:09;10.20;99.90
5870;DHT22;2961;47.702;9.410;2023-04-01T15:47:42;10.10;99.90
5870;DHT22;2961;47.702;9.410;2023-04-01T15:50:48;10.10;99.90
5870;DHT22;2961;47.702;9.410;2023-04-01T15:56:28;9.90;99.90
5870;DHT22;2961;47.702;9.410;2023-04-01T15:59:18;9.90;99.90
5870;DHT22;2961;47.702;9.410;2023-04-01T16:01:53;9.80;99.90
5870;DHT22;2961;47.702;9.410;2023-04-01T16:04:41;9.80;99.90
5870;DHT22;2961;47.702;9.410;2023-04-01T16:07:26;9.80;99.90
5870;DHT22;2961;47.702;9.410;2023-04-01T16:10:17;9.70;99.90
5870;DHT22;2961;47.702;9.410;2023-04-01T16:12:57;9.70;99.90
5870;DHT22;2961;47.702;9.410;2023-04-01T16:15:31;9.70;99.90
5870;DHT22;2961;47.702;9.410;2023-04-01T16:18:14;9.80;99.90
5870;DHT22;2961;47.702;9.410;2023-04-01T16:20:51;9.80;99.90
5870;DHT22;2961;47.702;9.410;2023-04-01T16:23:26;9.80;99.90
5870;DHT22;2961;47.702;9.410;2023-04-01T16:26:03;9.80;99.90
5870;DHT22;2961;47.702;9.410;2023-04-01T16:28:36;9.80;99.90
5870;DHT22;2961;47.702;9.410;2023-04-01T16:31:07;9.70;99.90
5870;DHT22;2961;47.702;9.410;2023-04-01T16:33:40;9.70;99.90
5870;DHT22;2961;47.702;9.410;2023-04-01T16:36:20;9.60;99.90
5870;DHT22;2961;47.702;9.410;2023-04-01T16:38:52;9.60;99.90
5870;DHT22;2961;47.702;9.410;2023-04-01T16:41:24;9.60;99.90
5870;DHT22;2961;47.702;9.410;2023-04-01T16:43:55;9.60;99.90
5870;DHT22;2961;47.702;9.410;2023-04-01T16:46:28;9.60;99.90
5870;DHT22;2961;47.702;9.410;2023-04-01T16:49:08;9.50;99.90
5870;DHT22;2961;47.702;9.410;2023-04-01T16:51:46;9.50;99.90
5870;DHT22;2961;47.702;9.410;2023-04-01T16:54:18;9.50;99.90
5870;DHT22;2961;47.702;9.410;2023-04-01T16:56:55;9.40;99.90
5870;DHT22;2961;47.702;9.410;2023-04-01T16:59:26;9.50;99.90
5870;DHT22;2961;47.702;9.410;2023-04-01T17:01:57;9.40;99.90
5870;DHT22;2961;47.702;9.410;2023-04-01T17:04:32;9.40;99.90
5870;DHT22;2961;47.702;9.410;2023-04-01T17:07:07;9.40;99.90
5870;DHT22;2961;47.702;9.410;2023-04-01T17:10:00;9.40;99.90
5870;DHT22;2961;47.702;9.410;2023-04-01T17:12:34;9.30;99.90
5870;DHT22;2961;47.702;9.410;2023-04-01T17:15:07;9.30;99.90
5870;DHT22;2961;47.702;9.410;2023-04-01T17:17:44;9.30;99.90
5870;DHT22;2961;47.702;9.410;2023-04-01T17:20:18;9.30;99.90
5870;DHT22;2961;47.702;9.410;2023-04-01T17:22:54;9.20;99.90
5870;DHT22;2961;47.702;9.410;2023-04-01T17:25:45;9.10;99.90
5870;DHT22;2961;47.702;9.410;2023-04-01T17:28:26;9.00;99.90
5870;DHT22;2961;47.702;9.410;2023-04-01T17:31:02;9.00;99.90
5870;DHT22;2961;47.702;9.410;2023-04-01T17:34:00;9.00;99.90
5870;DHT22;2961;47.702;9.410;2023-04-01T17:36:45;8.80;99.90
5870;DHT22;2961;47.702;9.410;2023-04-01T17:39:26;8.80;99.90
5870;DHT22;2961;47.702;9.410;2023-04-01T17:41:57;8.80;99.90
5870;DHT22;2961;47.702;9.410;2023-04-01T17:44:40;8.70;99.90
5870;DHT22;2961;47.702;9.410;2023-04-01T17:47:25;8.60;99.90
5870;DHT22;2961;47.702;9.410;2023-04-01T17:49:59;8.50;99.90
5870;DHT22;2961;47.702;9.410;2023-04-01T17:52:31;8.50;99.90
5870;DHT22;2961;47.702;9.410;2023-04-01T17:55:28;8.50;99.90
5870;DHT22;2961;47.702;9.410;2023-04-01T17:58:02;8.30;99.90
5870;DHT22;2961;47.702;9.410;2023-04-01T18:00:36;8.20;99.90
5870;DHT22;2961;47.702;9.410;2023-04-01T18:03:15;8.20;99.90
5870;DHT22;2961;47.702;9.410;2023-04-01T18:06:02;8.20;99.90
5870;DHT22;2961;47.702;9.410;2023-04-01T18:08:43;8.10;99.90
5870;DHT22;2961;47.702;9.410;2023-04-01T18:11:21;8.10;99.90
5870;DHT22;2961;47.702;9.410;2023-04-01T18:14:17;8.10;99.90
5870;DHT22;2961;47.702;9.410;2023-04-01T18:17:00;8.00;99.90
5870;DHT22;2961;47.702;9.410;2023-04-01T18:19:39;7.90;99.90
5870;DHT22;2961;47.702;9.410;2023-04-01T18:22:19;7.90;99.90
5870;DHT22;2961;47.702;9.410;2023-04-01T18:24:56;7.80;99.90